createdAt,value
2018-06-14T00:02:14.419Z,2.17
2018-06-14T00:04:46.295Z,2.40
2018-06-14T00:07:16.390Z,2.40
2018-06-14T00:09:46.405Z,2.20
2018-06-14T00:12:16.173Z,2.13
2018-06-14T00:14:46.322Z,2.20
2018-06-14T00:17:20.534Z,2.20
2018-06-14T00:19:49.989Z,2.70
2018-06-14T00:22:19.917Z,2.50
2018-06-14T00:24:51.198Z,2.20
2018-06-14T00:27:21.763Z,2.30
2018-06-14T00:29:55.794Z,2.27
2018-06-14T00:32:26.866Z,2.57
2018-06-14T00:34:58.999Z,2.10
2018-06-14T00:37:28.510Z,2.33
2018-06-14T00:39:58.451Z,2.40
2018-06-14T00:42:28.995Z,2.40
2018-06-14T00:44:59.797Z,2.67
2018-06-14T00:47:29.373Z,2.03
2018-06-14T00:50:00.173Z,2.40
2018-06-14T00:52:30.452Z,2.23
2018-06-14T00:55:01.442Z,2.30
2018-06-14T00:57:32.880Z,2.40
2018-06-14T01:00:03.630Z,2.20
2018-06-14T01:02:38.337Z,2.30
2018-06-14T01:05:09.745Z,2.17
2018-06-14T01:07:40.851Z,2.33
2018-06-14T01:10:10.670Z,2.17
2018-06-14T01:12:41.185Z,2.40
2018-06-14T01:15:13.858Z,2.47
2018-06-14T01:17:43.474Z,2.43
2018-06-14T01:20:14.270Z,2.53
2018-06-14T01:22:44.594Z,2.30
2018-06-14T01:25:15.938Z,2.53
2018-06-14T01:27:45.798Z,2.33
2018-06-14T01:30:15.955Z,2.57
2018-06-14T01:32:47.623Z,2.10
2018-06-14T01:35:18.337Z,2.47
2018-06-14T01:38:00.535Z,2.57
2018-06-14T01:40:30.680Z,2.57
2018-06-14T01:43:00.184Z,2.33
2018-06-14T01:45:31.470Z,2.33
2018-06-14T01:48:00.994Z,2.13
2018-06-14T01:50:31.150Z,2.33
2018-06-14T01:53:04.830Z,2.57
2018-06-14T01:55:35.509Z,2.50
2018-06-14T01:58:05.467Z,2.70
2018-06-14T02:00:36.569Z,2.10
2018-06-14T02:03:06.852Z,2.13
2018-06-14T02:05:37.513Z,2.13
2018-06-14T02:08:06.877Z,2.57
2018-06-14T02:10:36.315Z,2.30
2018-06-14T02:13:06.269Z,2.20
2018-06-14T02:15:36.447Z,2.30
2018-06-14T02:18:06.310Z,2.47
2018-06-14T02:20:36.330Z,2.40
2018-06-14T02:23:08.168Z,2.30
2018-06-14T02:25:38.786Z,2.30
2018-06-14T02:28:08.511Z,2.50
2018-06-14T02:30:38.234Z,2.00
2018-06-14T02:33:09.006Z,2.30
2018-06-14T02:35:42.823Z,2.63
2018-06-14T02:38:12.884Z,2.20
2018-06-14T02:40:43.194Z,2.50
2018-06-14T02:43:12.805Z,2.50
2018-06-14T02:45:43.662Z,2.80
2018-06-14T02:48:13.488Z,2.40
2018-06-14T02:50:43.343Z,2.30
2018-06-14T02:53:13.817Z,2.40
2018-06-14T02:55:44.674Z,2.80
2018-06-14T02:58:14.934Z,2.50
2018-06-14T03:00:45.518Z,2.30
2018-06-14T03:03:16.227Z,2.30
2018-06-14T03:05:55.892Z,2.20
2018-06-14T03:08:25.788Z,2.40
2018-06-14T03:10:55.331Z,2.27
2018-06-14T03:13:26.206Z,2.03
2018-06-14T03:15:57.155Z,2.33
2018-06-14T03:18:27.310Z,2.30
2018-06-14T03:20:57.002Z,2.60
2018-06-14T03:23:28.070Z,2.10
2018-06-14T03:26:02.971Z,2.30
2018-06-14T03:28:32.314Z,2.40
2018-06-14T03:31:01.666Z,2.27
2018-06-14T03:33:31.625Z,2.40
2018-06-14T03:36:19.818Z,2.37
2018-06-14T03:38:49.798Z,2.40
2018-06-14T03:41:20.234Z,2.70
2018-06-14T03:43:49.846Z,2.30
2018-06-14T03:46:23.045Z,2.23
2018-06-14T03:48:52.844Z,2.10
2018-06-14T03:51:23.562Z,2.30
2018-06-14T03:53:54.483Z,2.30
2018-06-14T03:56:26.750Z,2.40
2018-06-14T03:59:01.861Z,2.27
2018-06-14T04:01:32.687Z,2.30
2018-06-14T04:04:02.000Z,2.60
2018-06-14T04:06:33.465Z,2.60
2018-06-14T04:09:03.163Z,2.30
2018-06-14T04:11:33.496Z,2.20
2018-06-14T04:14:03.004Z,2.33
2018-06-14T04:16:34.138Z,2.10
2018-06-14T04:19:09.106Z,2.40
2018-06-14T04:21:38.398Z,2.30
2018-06-14T04:24:08.000Z,2.40
2018-06-14T04:26:43.667Z,2.30
2018-06-14T04:29:13.470Z,2.30
2018-06-14T04:31:42.842Z,2.20
2018-06-14T04:34:12.335Z,2.60
2018-06-14T04:36:47.228Z,2.30
2018-06-14T04:39:16.921Z,2.03
2018-06-14T04:41:46.623Z,2.10
2018-06-14T04:44:16.593Z,2.33
2018-06-14T04:46:49.186Z,2.30
2018-06-14T04:49:18.660Z,2.50
2018-06-14T04:51:48.671Z,2.20
2018-06-14T04:54:18.395Z,2.20
2018-06-14T04:56:49.122Z,2.27
2018-06-14T04:59:19.543Z,2.07
2018-06-14T05:01:49.328Z,2.40
2018-06-14T05:04:18.589Z,2.90
2018-06-14T05:06:49.752Z,2.50
2018-06-14T05:09:19.338Z,2.47
2018-06-14T05:11:49.345Z,2.40
2018-06-14T05:14:21.063Z,2.53
2018-06-14T05:16:52.485Z,2.50
2018-06-14T05:19:22.031Z,2.50
2018-06-14T05:21:53.391Z,2.80
2018-06-14T05:24:23.979Z,2.80
2018-06-14T05:27:04.956Z,3.10
2018-06-14T05:29:34.212Z,2.70
2018-06-14T05:32:03.606Z,2.53
2018-06-14T05:34:34.910Z,2.50
2018-06-14T05:37:12.683Z,2.60
2018-06-14T05:39:42.839Z,2.90
2018-06-14T05:42:12.780Z,2.93
2018-06-14T05:44:42.087Z,2.77
2018-06-14T05:47:24.731Z,2.73
2018-06-14T05:49:54.737Z,2.70
2018-06-14T05:52:25.513Z,3.10
2018-06-14T05:54:56.051Z,2.67
2018-06-14T06:00:22.718Z,2.70
2018-06-14T06:02:56.865Z,3.00
2018-06-14T06:12:12.244Z,3.37
2018-06-14T06:20:43.900Z,3.13
2018-06-14T06:29:05.827Z,3.80
2018-06-14T06:31:38.174Z,3.27
2018-06-14T06:34:11.312Z,3.10
2018-06-14T06:39:46.090Z,3.40
2018-06-14T06:51:18.362Z,2.77
2018-06-14T06:54:23.187Z,3.00
2018-06-14T06:56:55.296Z,3.27
2018-06-14T07:00:40.911Z,3.07
2018-06-14T07:03:12.810Z,3.53
2018-06-14T07:05:49.438Z,3.40
2018-06-14T07:11:22.954Z,3.37
2018-06-14T07:13:59.798Z,3.57
2018-06-14T07:16:37.053Z,3.43
2018-06-14T07:22:23.871Z,3.00
2018-06-14T07:24:56.787Z,3.17
2018-06-14T07:27:27.245Z,3.10
2018-06-14T07:30:02.049Z,3.20
2018-06-14T07:32:32.105Z,3.10
2018-06-14T07:35:02.850Z,3.40
2018-06-14T07:37:34.522Z,3.00
2018-06-14T07:40:05.284Z,3.17
2018-06-14T07:42:38.116Z,2.70
2018-06-14T07:45:08.749Z,2.70
2018-06-14T07:47:41.934Z,2.97
2018-06-14T07:50:12.964Z,2.90
2018-06-14T07:52:43.687Z,2.60
2018-06-14T07:55:15.060Z,2.30
2018-06-14T07:57:47.443Z,2.90
2018-06-14T08:00:17.642Z,2.47
2018-06-14T08:02:47.719Z,2.60
2018-06-14T08:05:17.527Z,2.53
2018-06-14T08:08:10.670Z,2.20
2018-06-14T08:10:41.558Z,2.13
2018-06-14T08:13:12.970Z,2.30
2018-06-14T08:15:46.267Z,1.97
2018-06-14T08:21:00.959Z,2.10
2018-06-14T08:23:31.135Z,2.23
2018-06-14T08:31:03.334Z,1.80
2018-06-14T08:35:11.861Z,2.00
2018-06-14T08:38:03.781Z,1.97
2018-06-14T08:40:37.233Z,1.93
2018-06-14T08:43:08.460Z,1.90
2018-06-14T08:53:39.675Z,2.00
2018-06-14T08:56:23.818Z,1.90
2018-06-14T08:58:56.310Z,1.90
2018-06-14T09:01:27.331Z,2.00
2018-06-14T09:03:59.125Z,1.90
2018-06-14T09:09:30.802Z,2.10
2018-06-14T09:12:00.823Z,1.80
2018-06-14T09:19:46.737Z,1.70
2018-06-14T09:22:18.223Z,1.60
2018-06-14T09:27:44.554Z,1.33
2018-06-14T09:30:16.073Z,1.53
2018-06-14T09:33:00.162Z,1.60
2018-06-14T09:35:32.500Z,1.83
2018-06-14T09:38:03.451Z,1.37
2018-06-14T09:41:01.147Z,1.80
2018-06-14T09:43:36.845Z,1.63
2018-06-14T09:46:07.310Z,1.93
2018-06-14T09:48:42.083Z,1.80
2018-06-14T09:51:31.101Z,1.80
2018-06-14T09:54:07.978Z,1.77
2018-06-14T09:56:40.765Z,1.97
2018-06-14T09:59:11.173Z,1.47
2018-06-14T10:01:42.249Z,1.70
2018-06-14T10:04:14.168Z,2.10
2018-06-14T10:06:44.404Z,1.53
2018-06-14T10:09:17.703Z,1.83
2018-06-14T10:11:47.773Z,1.83
2018-06-14T10:14:17.939Z,2.00
2018-06-14T10:16:47.754Z,1.70
2018-06-14T10:22:18.970Z,1.70
2018-06-14T10:24:51.990Z,2.10
2018-06-14T10:27:24.223Z,2.13
2018-06-14T10:33:11.178Z,2.87
2018-06-14T10:35:41.078Z,3.23
2018-06-14T10:38:10.934Z,3.63
2018-06-14T10:40:46.871Z,2.63
2018-06-14T10:43:17.947Z,2.57
2018-06-14T10:45:50.074Z,2.80
2018-06-14T10:48:19.702Z,3.20
2018-06-14T10:51:06.297Z,3.07
2018-06-14T10:53:35.914Z,2.53
2018-06-14T10:56:05.787Z,3.50
2018-06-14T10:58:35.763Z,3.07
2018-06-14T11:01:06.790Z,3.17
2018-06-14T11:03:36.483Z,2.20
2018-06-14T11:06:06.116Z,3.00
2018-06-14T11:08:36.620Z,2.37
2018-06-14T11:11:09.784Z,2.50
2018-06-14T11:13:39.367Z,2.20
2018-06-14T11:16:08.874Z,2.30
2018-06-14T11:18:38.401Z,2.50
2018-06-14T11:21:08.643Z,2.40
2018-06-14T11:23:38.330Z,2.50
2018-06-14T11:26:07.979Z,2.23
2018-06-14T11:28:37.994Z,2.03
2018-06-14T11:36:23.258Z,2.67
2018-06-14T11:38:53.906Z,2.40
2018-06-14T11:41:24.308Z,2.47
2018-06-14T11:43:55.614Z,2.13
2018-06-14T11:46:32.420Z,2.03
2018-06-14T11:49:03.786Z,2.07
2018-06-14T11:51:33.511Z,2.07
2018-06-14T11:54:06.057Z,2.03
2018-06-14T11:56:36.265Z,2.30
2018-06-14T11:59:05.897Z,2.43
2018-06-14T12:01:37.482Z,2.10
2018-06-14T12:04:17.807Z,1.90
2018-06-14T12:06:51.634Z,2.23
2018-06-14T12:09:23.075Z,2.17
2018-06-14T12:11:52.817Z,1.80
2018-06-14T12:14:32.417Z,2.20
2018-06-14T12:17:04.295Z,2.00
2018-06-14T12:19:37.105Z,2.30
2018-06-14T12:22:06.515Z,2.67
2018-06-14T12:24:39.800Z,2.20
2018-06-14T12:27:09.487Z,2.17
2018-06-14T12:29:42.230Z,2.53
2018-06-14T12:32:14.566Z,2.27
2018-06-14T12:34:45.752Z,2.37
2018-06-14T12:37:16.306Z,2.43
2018-06-14T12:39:47.532Z,2.40
2018-06-14T12:42:17.875Z,2.50
2018-06-14T12:45:10.702Z,2.37
2018-06-14T12:47:43.614Z,2.13
2018-06-14T12:50:13.808Z,2.50
2018-06-14T12:52:45.498Z,2.40
2018-06-14T12:58:14.427Z,2.20
2018-06-14T13:00:45.759Z,2.27
2018-06-14T13:03:17.534Z,2.37
2018-06-14T13:05:51.803Z,2.10
2018-06-14T13:08:22.564Z,2.43
2018-06-14T13:10:54.054Z,2.20
2018-06-14T13:13:24.798Z,2.10
2018-06-14T13:15:57.543Z,2.27
2018-06-14T13:18:28.750Z,2.50
2018-06-14T13:21:00.099Z,2.60
2018-06-14T13:23:31.855Z,2.53
2018-06-14T13:26:06.830Z,2.57
2018-06-14T13:28:37.866Z,2.60
2018-06-14T13:31:08.546Z,2.53
2018-06-14T13:36:32.047Z,3.03
2018-06-14T13:39:02.619Z,3.00
2018-06-14T13:41:33.785Z,2.80
2018-06-14T13:44:05.370Z,2.97
2018-06-14T13:46:40.186Z,3.10
2018-06-14T13:49:11.401Z,2.77
2018-06-14T13:51:45.022Z,3.20
2018-06-14T13:54:33.895Z,3.00
2018-06-14T13:57:06.095Z,3.27
2018-06-14T13:59:36.787Z,3.10
2018-06-14T14:02:07.619Z,2.97
2018-06-14T14:04:40.910Z,2.80
2018-06-14T14:07:12.768Z,3.17
2018-06-14T14:09:43.108Z,3.20
2018-06-14T14:12:16.272Z,2.87
2018-06-14T14:18:20.330Z,2.90
2018-06-14T14:20:51.166Z,3.23
2018-06-14T14:23:23.341Z,3.20
2018-06-14T14:25:53.562Z,2.50
2018-06-14T14:28:24.887Z,2.83
2018-06-14T14:31:00.108Z,3.10
2018-06-14T14:33:46.729Z,2.50
2018-06-14T14:36:19.679Z,2.60
2018-06-14T14:38:53.142Z,3.10
2018-06-14T14:41:47.674Z,2.90
2018-06-14T14:45:23.766Z,3.00
2018-06-14T14:48:05.567Z,2.90
2018-06-14T14:50:56.239Z,3.13
2018-06-14T14:53:31.198Z,3.00
2018-06-14T14:56:03.559Z,2.53
2018-06-14T14:58:42.125Z,3.10
2018-06-14T15:01:30.613Z,2.53
2018-06-14T15:04:05.865Z,2.23
2018-06-14T15:06:38.275Z,2.73
2018-06-14T15:09:09.862Z,2.90
2018-06-14T15:11:41.070Z,2.40
2018-06-14T15:17:46.816Z,3.17
2018-06-14T15:20:18.072Z,3.50
2018-06-14T15:22:49.428Z,3.13
2018-06-14T15:25:36.018Z,3.30
2018-06-14T15:28:08.597Z,3.10
2018-06-14T15:30:40.733Z,2.83
2018-06-14T15:33:13.532Z,2.97
2018-06-14T15:35:43.339Z,2.67
2018-06-14T15:38:13.410Z,3.20
2018-06-14T15:40:43.714Z,3.27
2018-06-14T15:43:14.855Z,2.50
2018-06-14T15:45:44.938Z,2.67
2018-06-14T15:48:14.239Z,3.10
2018-06-14T15:50:45.946Z,2.67
2018-06-14T15:53:15.483Z,2.63
2018-06-14T15:56:47.898Z,2.87
2018-06-14T15:59:17.708Z,2.77
2018-06-14T16:05:08.005Z,2.53
2018-06-14T16:07:42.963Z,2.40
2018-06-14T16:10:14.987Z,2.73
2018-06-14T16:12:45.154Z,2.63
2018-06-14T16:29:21.922Z,2.30
2018-06-14T16:31:53.474Z,2.70
2018-06-14T16:34:23.401Z,2.50
2018-06-14T16:37:00.994Z,2.20
2018-06-14T16:39:32.003Z,2.63
2018-06-14T16:42:01.653Z,2.50
2018-06-14T16:44:32.278Z,2.47
2018-06-14T16:47:13.670Z,2.37
2018-06-14T16:49:46.949Z,2.50
2018-06-14T16:52:17.843Z,2.50
2018-06-14T16:54:51.192Z,2.40
2018-06-14T16:57:21.887Z,2.50
2018-06-14T16:59:53.694Z,2.70
2018-06-14T17:02:24.779Z,2.77
2018-06-14T17:04:56.973Z,2.67
2018-06-14T17:07:28.872Z,2.70
2018-06-14T17:09:59.937Z,2.63
2018-06-14T17:12:31.598Z,2.40
2018-06-14T17:15:03.138Z,2.50
2018-06-14T17:17:35.269Z,2.43
2018-06-14T17:20:15.274Z,2.33
2018-06-14T17:22:46.950Z,2.80
2018-06-14T17:25:19.074Z,2.47
2018-06-14T17:27:53.603Z,2.47
2018-06-14T17:30:25.059Z,2.43
2018-06-14T17:32:58.111Z,2.23
2018-06-14T17:35:30.374Z,2.60
2018-06-14T17:38:00.507Z,2.50
2018-06-14T17:40:31.123Z,2.27
2018-06-14T17:43:04.414Z,2.57
2018-06-14T17:45:34.994Z,2.40
2018-06-14T17:48:04.970Z,2.23
2018-06-14T17:50:39.836Z,2.37
2018-06-14T17:53:09.804Z,2.40
2018-06-14T17:55:40.086Z,2.77
2018-06-14T17:58:10.195Z,2.00
2018-06-14T18:00:47.999Z,2.10
2018-06-14T18:03:23.002Z,2.10
2018-06-14T18:05:52.622Z,2.23
2018-06-14T18:08:23.028Z,2.53
2018-06-14T18:10:55.714Z,2.33
2018-06-14T18:13:26.793Z,2.27
2018-06-14T18:15:56.491Z,2.33
2018-06-14T18:18:27.588Z,2.60
2018-06-14T18:20:57.999Z,2.60
2018-06-14T18:23:29.436Z,2.30
2018-06-14T18:26:00.975Z,2.17
2018-06-14T18:28:35.297Z,2.53
2018-06-14T18:31:05.069Z,2.63
2018-06-14T18:33:42.640Z,2.73
2018-06-14T18:36:13.334Z,2.60
2018-06-14T18:39:19.255Z,2.33
2018-06-14T18:42:48.683Z,2.40
2018-06-14T18:45:24.667Z,2.67
2018-06-14T18:47:56.686Z,2.33
2018-06-14T18:50:26.201Z,2.87
2018-06-14T18:52:58.452Z,2.70
2018-06-14T18:55:27.995Z,2.70
2018-06-14T18:58:09.686Z,2.70
2018-06-14T19:00:55.388Z,2.60
2018-06-14T19:03:26.751Z,2.53
2018-06-14T19:05:56.831Z,2.80
2018-06-14T19:08:27.170Z,2.93
2018-06-14T19:11:20.516Z,2.40
2018-06-14T19:13:50.858Z,2.60
2018-06-14T19:16:25.407Z,2.80
2018-06-14T19:18:58.070Z,2.67
2018-06-14T19:21:35.339Z,3.17
2018-06-14T19:24:34.687Z,2.67
2018-06-14T19:32:06.381Z,2.97
2018-06-14T19:34:41.145Z,3.00
2018-06-14T19:37:14.138Z,3.00
2018-06-14T19:39:50.631Z,3.07
2018-06-14T19:42:27.145Z,3.00
2018-06-14T19:45:04.371Z,2.87
2018-06-14T19:47:36.406Z,2.70
2018-06-14T19:50:06.964Z,2.50
2018-06-14T19:52:39.159Z,3.00
2018-06-14T19:55:08.817Z,3.03
2018-06-14T19:57:57.013Z,3.00
2018-06-14T20:00:31.791Z,3.13
2018-06-14T20:03:06.167Z,2.87
2018-06-14T20:05:37.268Z,3.03
2018-06-14T20:08:21.950Z,2.73
2018-06-14T20:10:53.189Z,2.93
2018-06-14T20:13:24.860Z,2.63
2018-06-14T20:15:56.306Z,2.87
2018-06-14T20:18:37.793Z,2.67
2018-06-14T20:21:13.742Z,3.00
2018-06-14T20:23:46.294Z,2.77
2018-06-14T20:26:17.242Z,2.87
2018-06-14T20:28:58.955Z,2.80
2018-06-14T20:31:30.543Z,2.83
2018-06-14T20:34:02.282Z,2.60
2018-06-14T20:36:35.713Z,3.20
2018-06-14T20:39:21.938Z,3.10
2018-06-14T20:41:52.377Z,3.10
2018-06-14T20:44:22.402Z,3.40
2018-06-14T20:46:53.084Z,3.07
2018-06-14T20:49:24.432Z,3.43
2018-06-14T20:51:55.867Z,3.20
2018-06-14T20:54:27.774Z,3.07
2018-06-14T20:56:59.073Z,3.20
2018-06-14T20:59:31.550Z,3.17
2018-06-14T21:02:03.726Z,2.90
2018-06-14T21:04:34.891Z,3.37
2018-06-14T21:07:11.339Z,3.13
2018-06-14T21:09:51.906Z,3.53
2018-06-14T21:12:23.722Z,3.40
2018-06-14T21:14:57.190Z,2.97
2018-06-14T21:17:28.202Z,3.30
2018-06-14T21:20:10.310Z,3.20
2018-06-14T21:22:42.839Z,3.20
2018-06-14T21:25:14.545Z,3.40
2018-06-14T21:27:48.838Z,3.17
2018-06-14T21:30:31.606Z,3.10
2018-06-14T21:33:03.134Z,3.00
2018-06-14T21:35:33.181Z,3.07
2018-06-14T21:38:04.362Z,3.43
2018-06-14T21:40:37.622Z,3.10
2018-06-14T21:43:07.281Z,2.90
2018-06-14T21:45:37.797Z,3.10
2018-06-14T21:48:07.945Z,3.17
2018-06-14T21:50:39.209Z,3.13
2018-06-14T21:53:09.571Z,3.07
2018-06-14T21:55:39.877Z,3.03
2018-06-14T21:58:09.817Z,2.83
2018-06-14T22:00:41.037Z,3.50
2018-06-14T22:03:16.515Z,3.60
2018-06-14T22:05:47.018Z,3.20
2018-06-14T22:08:17.057Z,3.10
2018-06-14T22:13:48.190Z,3.17
2018-06-14T22:16:17.699Z,2.90
2018-06-14T22:18:47.786Z,2.90
2018-06-14T22:21:18.713Z,3.30
2018-06-14T22:23:48.579Z,3.00
2018-06-14T22:26:23.270Z,3.17
2018-06-14T22:28:58.244Z,2.77
2018-06-14T22:31:40.339Z,3.20
2018-06-14T22:34:56.657Z,3.23
2018-06-14T22:37:26.765Z,2.77
2018-06-14T22:39:58.930Z,3.13
2018-06-14T22:42:29.037Z,2.90
2018-06-14T22:44:59.979Z,3.20
2018-06-14T22:47:56.532Z,3.10
2018-06-14T22:50:42.677Z,3.20
2018-06-14T22:53:12.738Z,3.03
2018-06-14T22:55:45.434Z,3.17
2018-06-14T22:58:15.846Z,3.17
2018-06-14T23:07:24.518Z,3.20
2018-06-14T23:13:16.371Z,3.30
2018-06-14T23:15:46.582Z,2.83
2018-06-14T23:18:18.389Z,3.00
2018-06-14T23:20:49.873Z,3.30
2018-06-14T23:23:20.077Z,3.17
2018-06-14T23:25:49.850Z,2.90
2018-06-14T23:28:20.216Z,3.20
2018-06-14T23:30:55.754Z,3.20
2018-06-14T23:33:27.178Z,3.30
2018-06-14T23:35:58.062Z,3.40
2018-06-14T23:38:28.755Z,3.60
2018-06-14T23:41:03.990Z,3.70
2018-06-14T23:43:34.315Z,2.97
2018-06-14T23:46:05.329Z,3.27
2018-06-14T23:48:36.010Z,3.00
2018-06-14T23:53:58.937Z,3.63
2018-06-14T23:56:28.921Z,3.40
2018-06-14T23:58:59.236Z,3.50
